Time;durP1;ratioP1;P1;durP2;ratioP2;P2;SDS_P1;SDS_P2;PMS_P1;PMS_P2;Temp;Humidity;BMP_temperature;BMP_pressure;BME280_temperature;BME280_humidity;BME280_pressure;Samples;Min_cycle;Max_cycle;Signal;HPM_P1;HPM_P2
2023/12/03 00:01:01;;;;;;;78.65;47.15;;;;;;;;;;4998281;28;25141;-77
2023/12/03 00:03:27;;;;;;;76.50;47.22;;;;;;;;;;4991797;28;25074;-79
2023/12/03 00:05:53;;;;;;;73.65;45.60;;;;;;;;;;4999380;28;25086;-78
2023/12/03 00:08:20;;;;;;;76.65;47.40;;;;;;;;;;5002685;28;25060;-77
2023/12/03 00:10:46;;;;;;;78.32;47.97;;;;;;;;;;5011301;28;25076;-79
2023/12/03 00:13:12;;;;;;;82.82;50.13;;;;;;;;;;5014040;28;25078;-77
2023/12/03 00:15:38;;;;;;;70.53;46.13;;;;;;;;;;5011277;28;25069;-78
2023/12/03 00:18:04;;;;;;;74.07;46.08;;;;;;;;;;5014369;28;25064;-79
2023/12/03 00:20:30;;;;;;;76.00;50.55;;;;;;;;;;5011291;28;25081;-81
2023/12/03 00:22:56;;;;;;;61.33;43.53;;;;;;;;;;5005974;28;25072;-80
2023/12/03 00:25:23;;;;;;;81.30;50.60;;;;;;;;;;4998905;28;25166;-77
2023/12/03 00:27:49;;;;;;;66.30;44.42;;;;;;;;;;4996347;28;25073;-76
2023/12/03 00:30:16;;;;;;;67.13;46.70;;;;;;;;;;4987775;28;25086;-75
2023/12/03 00:32:42;;;;;;;73.70;48.33;;;;;;;;;;4993439;28;25088;-75
2023/12/03 00:35:08;;;;;;;79.20;49.20;;;;;;;;;;4987526;28;25108;-77
2023/12/03 00:37:34;;;;;;;77.40;48.72;;;;;;;;;;4993584;28;25151;-77
2023/12/03 00:40:00;;;;;;;82.65;48.20;;;;;;;;;;4983992;28;25081;-76
2023/12/03 00:42:27;;;;;;;86.80;54.67;;;;;;;;;;5004758;28;25068;-75
2023/12/03 00:44:53;;;;;;;88.82;53.78;;;;;;;;;;4998005;28;25076;-76
2023/12/03 00:47:19;;;;;;;88.68;55.45;;;;;;;;;;4998388;28;25110;-77
2023/12/03 00:49:45;;;;;;;76.55;50.83;;;;;;;;;;4997586;28;25071;-77
2023/12/03 00:52:11;;;;;;;84.75;53.90;;;;;;;;;;5001484;28;25092;-78
2023/12/03 00:54:37;;;;;;;72.85;49.55;;;;;;;;;;4999679;28;25102;-77
2023/12/03 00:57:03;;;;;;;72.70;51.35;;;;;;;;;;4996698;28;25060;-77
2023/12/03 00:59:29;;;;;;;79.30;53.75;;;;;;;;;;4994050;28;25153;-78
2023/12/03 01:01:55;;;;;;;71.40;49.38;;;;;;;;;;4995458;28;25051;-77
2023/12/03 01:04:21;;;;;;;69.00;47.63;;;;;;;;;;5012438;28;25075;-77
2023/12/03 01:06:47;;;;;;;64.88;47.78;;;;;;;;;;5003946;28;25060;-76
2023/12/03 01:09:13;;;;;;;64.70;46.67;;;;;;;;;;5004654;28;25093;-78
2023/12/03 01:11:40;;;;;;;60.38;45.08;;;;;;;;;;5012779;28;25108;-80
2023/12/03 01:14:06;;;;;;;55.53;43.33;;;;;;;;;;5019508;28;25050;-78
2023/12/03 01:16:33;;;;;;;60.38;43.42;;;;;;;;;;5012744;28;25092;-79
2023/12/03 01:18:59;;;;;;;54.03;40.15;;;;;;;;;;5009529;28;25075;-78
2023/12/03 01:21:25;;;;;;;53.60;41.85;;;;;;;;;;5018900;28;25100;-79
2023/12/03 01:23:51;;;;;;;57.53;41.63;;;;;;;;;;5015598;28;25090;-79
2023/12/03 01:26:17;;;;;;;59.72;42.75;;;;;;;;;;5010830;28;25073;-80
2023/12/03 01:28:43;;;;;;;55.25;40.63;;;;;;;;;;5012894;28;25048;-79
2023/12/03 01:31:09;;;;;;;62.75;43.70;;;;;;;;;;4981489;28;25091;-78
2023/12/03 01:33:35;;;;;;;56.85;42.33;;;;;;;;;;5000101;28;25075;-78
2023/12/03 01:36:01;;;;;;;59.47;42.53;;;;;;;;;;4992130;28;25149;-77
2023/12/03 01:38:27;;;;;;;56.72;42.25;;;;;;;;;;4991716;28;25059;-78
2023/12/03 01:40:54;;;;;;;52.58;40.40;;;;;;;;;;4991596;28;25141;-77
2023/12/03 01:43:20;;;;;;;61.72;43.53;;;;;;;;;;5008774;28;25071;-77
2023/12/03 01:45:46;;;;;;;61.90;42.08;;;;;;;;;;4990402;28;25072;-77
2023/12/03 01:48:13;;;;;;;49.58;38.53;;;;;;;;;;4988898;28;25048;-77
2023/12/03 01:50:41;;;;;;;57.95;44.42;;;;;;;;;;4991844;28;25068;-80
2023/12/03 01:53:08;;;;;;;54.80;40.45;;;;;;;;;;4995956;28;25069;-77
2023/12/03 01:55:34;;;;;;;53.60;40.08;;;;;;;;;;4987373;28;25056;-77
2023/12/03 01:58:00;;;;;;;40.40;31.70;;;;;;;;;;4993452;28;25117;-78
2023/12/03 02:00:26;;;;;;;55.90;41.03;;;;;;;;;;4994770;28;25140;-77
2023/12/03 02:02:52;;;;;;;44.20;37.67;;;;;;;;;;4999443;28;25056;-76
2023/12/03 02:05:18;;;;;;;49.60;36.67;;;;;;;;;;4996842;28;25128;-76
2023/12/03 02:07:44;;;;;;;50.90;39.17;;;;;;;;;;4991956;28;25141;-79
2023/12/03 02:10:10;;;;;;;51.75;39.10;;;;;;;;;;4997606;28;25135;-79
2023/12/03 02:12:38;;;;;;;51.47;38.88;;;;;;;;;;5004654;28;25062;-78
2023/12/03 02:15:04;;;;;;;47.83;37.72;;;;;;;;;;4998297;28;25077;-79
2023/12/03 02:17:30;;;;;;;48.70;38.38;;;;;;;;;;4995104;28;25162;-79
2023/12/03 02:19:56;;;;;;;54.97;41.67;;;;;;;;;;4999470;28;25057;-79
2023/12/03 02:22:22;;;;;;;46.13;36.45;;;;;;;;;;5007686;28;25073;-78
2023/12/03 02:24:48;;;;;;;57.15;40.92;;;;;;;;;;4994685;28;25086;-78
2023/12/03 02:27:14;;;;;;;52.05;39.67;;;;;;;;;;4995387;28;25066;-78
2023/12/03 02:29:40;;;;;;;50.10;37.60;;;;;;;;;;4998639;28;25105;-78
2023/12/03 02:32:06;;;;;;;44.63;35.58;;;;;;;;;;5002001;28;25104;-78
2023/12/03 02:34:32;;;;;;;55.30;40.00;;;;;;;;;;4994747;28;25089;-78
2023/12/03 02:36:58;;;;;;;56.47;41.75;;;;;;;;;;5000903;28;25103;-78
2023/12/03 02:39:24;;;;;;;51.15;36.92;;;;;;;;;;5003158;28;25093;-78
2023/12/03 02:41:52;;;;;;;58.85;41.35;;;;;;;;;;4992986;28;25063;-78
2023/12/03 02:44:17;;;;;;;47.17;34.40;;;;;;;;;;4994887;28;25062;-78
2023/12/03 02:46:43;;;;;;;51.95;37.63;;;;;;;;;;4994713;28;25082;-77
2023/12/03 02:49:09;;;;;;;56.58;39.88;;;;;;;;;;5000689;28;25104;-78
2023/12/03 02:51:35;;;;;;;49.03;36.25;;;;;;;;;;5000500;28;25089;-77
2023/12/03 02:54:01;;;;;;;60.08;40.60;;;;;;;;;;5000528;28;25084;-78
2023/12/03 02:56:27;;;;;;;58.40;40.97;;;;;;;;;;5001498;28;25086;-78
2023/12/03 02:58:53;;;;;;;49.83;36.08;;;;;;;;;;4998864;28;25099;-78
2023/12/03 03:01:19;;;;;;;63.88;41.88;;;;;;;;;;4999098;28;25065;-76
2023/12/03 03:03:45;;;;;;;62.45;41.10;;;;;;;;;;5002000;28;25063;-77
2023/12/03 03:06:13;;;;;;;58.15;40.88;;;;;;;;;;5000997;28;25151;-78
2023/12/03 03:08:39;;;;;;;62.72;41.70;;;;;;;;;;5004509;28;25058;-77
2023/12/03 03:11:05;;;;;;;61.53;39.92;;;;;;;;;;5002776;28;25135;-79
2023/12/03 03:13:32;;;;;;;60.33;40.80;;;;;;;;;;5003441;28;25079;-78
2023/12/03 03:15:58;;;;;;;49.80;35.90;;;;;;;;;;5009065;28;25071;-80
2023/12/03 03:18:24;;;;;;;66.72;43.67;;;;;;;;;;5014407;28;25062;-78
2023/12/03 03:20:50;;;;;;;49.50;36.40;;;;;;;;;;5016220;28;25067;-76
2023/12/03 03:23:16;;;;;;;59.88;40.80;;;;;;;;;;5024373;28;25081;-77
2023/12/03 03:25:42;;;;;;;68.03;43.20;;;;;;;;;;5009945;28;25077;-79
2023/12/03 03:28:08;;;;;;;71.95;43.28;;;;;;;;;;5003858;28;25093;-78
2023/12/03 03:30:35;;;;;;;66.35;41.83;;;;;;;;;;5001036;28;25062;-78
2023/12/03 03:33:01;;;;;;;65.28;43.13;;;;;;;;;;5005954;28;25100;-76
2023/12/03 03:35:27;;;;;;;57.63;41.20;;;;;;;;;;5006324;28;25068;-77
2023/12/03 03:37:53;;;;;;;70.32;45.70;;;;;;;;;;5005655;28;25068;-78
2023/12/03 03:40:19;;;;;;;70.60;41.80;;;;;;;;;;5005215;28;25073;-77
2023/12/03 03:42:46;;;;;;;74.55;42.83;;;;;;;;;;5009368;28;25096;-80
2023/12/03 03:45:12;;;;;;;74.65;46.17;;;;;;;;;;5012357;28;25067;-80
2023/12/03 03:47:38;;;;;;;64.00;41.67;;;;;;;;;;5009868;28;25130;-79
2023/12/03 03:50:04;;;;;;;79.55;45.55;;;;;;;;;;5002341;22;25120;-62
2023/12/03 03:52:31;;;;;;;74.57;46.55;;;;;;;;;;4980776;28;25075;-63
2023/12/03 03:54:57;;;;;;;66.40;42.90;;;;;;;;;;4993459;28;25081;-65
2023/12/03 03:57:23;;;;;;;73.65;46.00;;;;;;;;;;4987313;28;25100;-63
2023/12/03 03:59:49;;;;;;;59.42;40.40;;;;;;;;;;4987360;28;25174;-61
2023/12/03 04:02:15;;;;;;;78.47;47.72;;;;;;;;;;4986163;28;25072;-63
2023/12/03 04:04:40;;;;;;;72.70;45.80;;;;;;;;;;4987676;28;25151;-62
2023/12/03 04:07:06;;;;;;;77.38;45.95;;;;;;;;;;4989563;28;25052;-62
2023/12/03 04:09:32;;;;;;;80.15;45.35;;;;;;;;;;4986618;28;25084;-62
2023/12/03 04:11:58;;;;;;;64.57;43.35;;;;;;;;;;4986153;28;25167;-65
2023/12/03 04:14:25;;;;;;;67.30;42.65;;;;;;;;;;4986199;28;25084;-62
2023/12/03 04:16:51;;;;;;;65.93;43.38;;;;;;;;;;4991821;28;25129;-61
2023/12/03 04:19:17;;;;;;;74.75;43.58;;;;;;;;;;4986488;28;25130;-62
2023/12/03 04:21:43;;;;;;;76.93;44.95;;;;;;;;;;4987628;28;25078;-61
2023/12/03 04:24:09;;;;;;;78.45;45.30;;;;;;;;;;4990251;28;25073;-62
2023/12/03 04:26:34;;;;;;;67.10;42.80;;;;;;;;;;4995378;28;25175;-62
2023/12/03 04:29:00;;;;;;;65.40;42.78;;;;;;;;;;4989885;28;25056;-63
2023/12/03 04:31:26;;;;;;;73.85;44.72;;;;;;;;;;4991096;28;25101;-61
2023/12/03 04:33:53;;;;;;;70.05;44.53;;;;;;;;;;4990219;28;25074;-63
2023/12/03 04:36:22;;;;;;;82.80;46.30;;;;;;;;;;4992111;28;25058;-62
2023/12/03 04:38:48;;;;;;;79.47;44.53;;;;;;;;;;4988972;28;25404;-62
2023/12/03 04:41:14;;;;;;;68.13;42.63;;;;;;;;;;4988701;28;25143;-62
2023/12/03 04:43:40;;;;;;;75.90;44.42;;;;;;;;;;4990377;28;25138;-62
2023/12/03 04:46:07;;;;;;;77.57;44.50;;;;;;;;;;4995668;28;25100;-62
2023/12/03 04:48:37;;;;;;;72.22;42.38;;;;;;;;;;4994042;28;25102;-60
2023/12/03 04:51:03;;;;;;;81.63;47.20;;;;;;;;;;4992842;28;25055;-60
2023/12/03 04:53:29;;;;;;;68.38;43.22;;;;;;;;;;4997305;28;25132;-64
2023/12/03 04:55:55;;;;;;;94.70;48.10;;;;;;;;;;4993720;28;25075;-61
2023/12/03 04:58:21;;;;;;;63.53;40.25;;;;;;;;;;4990461;28;25048;-63
2023/12/03 05:00:47;;;;;;;75.80;42.13;;;;;;;;;;4989120;28;25074;-60
2023/12/03 05:03:14;;;;;;;79.63;44.20;;;;;;;;;;4993066;28;25082;-63
2023/12/03 05:05:40;;;;;;;76.20;43.95;;;;;;;;;;4987858;28;25151;-61
2023/12/03 05:08:06;;;;;;;82.60;44.65;;;;;;;;;;4990032;28;25115;-62
2023/12/03 05:10:32;;;;;;;83.57;44.30;;;;;;;;;;4988139;28;25134;-62
2023/12/03 05:12:58;;;;;;;64.03;40.00;;;;;;;;;;5006016;28;25060;-61
2023/12/03 05:15:24;;;;;;;89.68;46.28;;;;;;;;;;4993081;28;25064;-62
2023/12/03 05:17:50;;;;;;;92.10;45.35;;;;;;;;;;4989973;28;25131;-61
2023/12/03 05:20:15;;;;;;;81.50;43.70;;;;;;;;;;4988008;28;25092;-62
2023/12/03 05:22:41;;;;;;;87.82;46.22;;;;;;;;;;4985284;28;25140;-61
2023/12/03 05:25:08;;;;;;;79.50;43.00;;;;;;;;;;4991306;28;25072;-63
2023/12/03 05:27:34;;;;;;;84.20;45.03;;;;;;;;;;4989434;28;25072;-62
2023/12/03 05:30:00;;;;;;;73.22;44.35;;;;;;;;;;4997447;28;25072;-61
2023/12/03 05:32:26;;;;;;;89.13;44.60;;;;;;;;;;4989201;28;25149;-62
2023/12/03 05:34:52;;;;;;;81.53;41.50;;;;;;;;;;4992608;28;25071;-61
2023/12/03 05:37:18;;;;;;;88.63;47.90;;;;;;;;;;4991566;28;25062;-62
2023/12/03 05:39:44;;;;;;;86.80;46.10;;;;;;;;;;4990565;28;25153;-63
2023/12/03 05:42:11;;;;;;;94.28;45.58;;;;;;;;;;4984174;28;25062;-63
2023/12/03 05:44:37;;;;;;;88.28;47.13;;;;;;;;;;4981795;28;25104;-61
2023/12/03 05:47:03;;;;;;;95.45;48.75;;;;;;;;;;4988544;28;25060;-62
2023/12/03 05:49:29;;;;;;;94.07;46.40;;;;;;;;;;4989764;28;25051;-63
2023/12/03 05:51:55;;;;;;;80.40;42.20;;;;;;;;;;4988445;28;25054;-61
2023/12/03 05:54:21;;;;;;;100.25;48.58;;;;;;;;;;4989534;28;25067;-62
2023/12/03 05:56:47;;;;;;;92.65;47.90;;;;;;;;;;4990148;28;25118;-61
2023/12/03 05:59:13;;;;;;;86.38;46.17;;;;;;;;;;4990855;28;25071;-61
2023/12/03 06:01:39;;;;;;;78.75;42.40;;;;;;;;;;4989272;28;25084;-62
2023/12/03 06:04:08;;;;;;;100.22;47.00;;;;;;;;;;4984925;28;25059;-62
2023/12/03 06:06:34;;;;;;;76.45;41.63;;;;;;;;;;4988089;28;25068;-63
2023/12/03 06:09:01;;;;;;;72.10;41.38;;;;;;;;;;4987405;28;25075;-63
2023/12/03 06:11:27;;;;;;;94.32;46.17;;;;;;;;;;4988580;28;25105;-64
2023/12/03 06:13:55;;;;;;;99.22;46.67;;;;;;;;;;4986877;28;25116;-61
2023/12/03 06:16:22;;;;;;;95.18;47.13;;;;;;;;;;4987959;28;25115;-62
2023/12/03 06:18:48;;;;;;;92.85;46.70;;;;;;;;;;4987797;28;25079;-62
2023/12/03 06:21:13;;;;;;;78.53;41.92;;;;;;;;;;4988893;28;25092;-63
2023/12/03 06:23:39;;;;;;;95.53;46.95;;;;;;;;;;4991820;28;25083;-64
2023/12/03 06:26:06;;;;;;;93.20;45.85;;;;;;;;;;4986955;28;25121;-63
2023/12/03 06:28:31;;;;;;;101.32;46.70;;;;;;;;;;4988255;28;25053;-64
2023/12/03 06:30:57;;;;;;;92.25;44.45;;;;;;;;;;4987607;28;25074;-63
2023/12/03 06:33:24;;;;;;;77.40;41.20;;;;;;;;;;4987831;28;25090;-62
2023/12/03 06:35:50;;;;;;;83.07;43.10;;;;;;;;;;4984502;28;25114;-64
2023/12/03 06:38:16;;;;;;;91.90;43.92;;;;;;;;;;4984726;28;25161;-63
2023/12/03 06:40:42;;;;;;;92.90;45.28;;;;;;;;;;4986376;28;25052;-61
2023/12/03 06:43:08;;;;;;;79.18;41.38;;;;;;;;;;4987180;28;25059;-62
2023/12/03 06:45:35;;;;;;;96.13;42.95;;;;;;;;;;4990769;28;25135;-61
2023/12/03 06:48:02;;;;;;;79.65;41.67;;;;;;;;;;4990808;28;25101;-61
2023/12/03 06:50:28;;;;;;;73.18;41.10;;;;;;;;;;4982203;28;25072;-64
2023/12/03 06:52:54;;;;;;;91.97;43.80;;;;;;;;;;4990933;28;25148;-64
2023/12/03 06:55:20;;;;;;;85.38;42.40;;;;;;;;;;4990826;28;25080;-61
2023/12/03 06:57:46;;;;;;;94.68;45.53;;;;;;;;;;4993084;28;25058;-66
2023/12/03 07:00:12;;;;;;;80.68;42.03;;;;;;;;;;4991553;28;25119;-61
2023/12/03 07:02:38;;;;;;;96.15;45.08;;;;;;;;;;4996289;28;25159;-63
2023/12/03 07:05:04;;;;;;;80.57;42.42;;;;;;;;;;4998006;28;25083;-63
2023/12/03 07:07:31;;;;;;;93.07;45.60;;;;;;;;;;4997691;28;25050;-62
2023/12/03 07:09:57;;;;;;;87.15;44.63;;;;;;;;;;4990346;28;25082;-62
2023/12/03 07:12:23;;;;;;;88.45;45.70;;;;;;;;;;4984142;28;25076;-61
2023/12/03 07:14:48;;;;;;;89.97;42.60;;;;;;;;;;4989811;28;25083;-62
2023/12/03 07:17:14;;;;;;;88.82;40.78;;;;;;;;;;4981835;28;25083;-61
2023/12/03 07:19:47;;;;;;;79.65;40.05;;;;;;;;;;4985569;28;25096;-61
2023/12/03 07:22:13;;;;;;;89.70;44.72;;;;;;;;;;4981479;28;25059;-62
2023/12/03 07:24:39;;;;;;;84.20;41.72;;;;;;;;;;4989830;28;25083;-62
2023/12/03 07:27:06;;;;;;;93.93;42.53;;;;;;;;;;4984368;28;25066;-64
2023/12/03 07:29:32;;;;;;;83.53;41.88;;;;;;;;;;4978791;28;25055;-61
2023/12/03 07:31:58;;;;;;;79.25;39.00;;;;;;;;;;4985983;28;25108;-61
2023/12/03 07:34:25;;;;;;;96.25;44.13;;;;;;;;;;4984992;28;25119;-62
2023/12/03 07:36:51;;;;;;;95.85;42.85;;;;;;;;;;4984058;28;25058;-62
2023/12/03 07:39:18;;;;;;;81.68;40.13;;;;;;;;;;4984670;28;25063;-64
2023/12/03 07:41:49;;;;;;;82.50;41.53;;;;;;;;;;4986668;28;25065;-61
2023/12/03 07:44:15;;;;;;;84.20;40.30;;;;;;;;;;4983676;28;25111;-63
2023/12/03 07:46:41;;;;;;;82.30;39.78;;;;;;;;;;4991641;28;25167;-62
2023/12/03 07:49:07;;;;;;;73.85;37.50;;;;;;;;;;4984219;28;25055;-63
2023/12/03 07:51:33;;;;;;;77.72;38.92;;;;;;;;;;4983121;28;25112;-61
2023/12/03 07:53:58;;;;;;;76.70;38.50;;;;;;;;;;4986940;28;25143;-61
2023/12/03 07:56:33;;;;;;;77.85;38.05;;;;;;;;;;4985276;28;25148;-61
2023/12/03 07:58:59;;;;;;;79.85;38.72;;;;;;;;;;4984984;28;25068;-63
2023/12/03 08:01:25;;;;;;;76.65;38.38;;;;;;;;;;4983717;28;25156;-64
2023/12/03 08:03:51;;;;;;;70.28;36.83;;;;;;;;;;4981212;28;25073;-62
2023/12/03 08:06:17;;;;;;;68.13;35.15;;;;;;;;;;4983595;28;25080;-62
2023/12/03 08:08:43;;;;;;;72.63;33.75;;;;;;;;;;4985141;28;25138;-62
2023/12/03 08:11:09;;;;;;;73.95;35.22;;;;;;;;;;4981984;28;25134;-62
2023/12/03 08:13:35;;;;;;;68.07;35.33;;;;;;;;;;4985445;28;25171;-61
2023/12/03 08:16:05;;;;;;;67.40;34.63;;;;;;;;;;4981801;28;25066;-63
2023/12/03 08:18:31;;;;;;;67.65;31.60;;;;;;;;;;4985026;28;25081;-63
2023/12/03 08:20:57;;;;;;;60.28;32.22;;;;;;;;;;4988462;28;25062;-62
2023/12/03 08:23:23;;;;;;;57.05;31.25;;;;;;;;;;4986080;28;25054;-63
2023/12/03 08:25:49;;;;;;;65.57;30.92;;;;;;;;;;4984454;28;25071;-63
2023/12/03 08:28:15;;;;;;;57.15;29.27;;;;;;;;;;4984951;28;25076;-60
2023/12/03 08:30:41;;;;;;;53.53;28.75;;;;;;;;;;4984610;28;25142;-61
2023/12/03 08:33:08;;;;;;;56.03;29.10;;;;;;;;;;4987868;28;25088;-63
2023/12/03 08:35:34;;;;;;;56.22;28.17;;;;;;;;;;4986252;28;25137;-61
2023/12/03 08:38:00;;;;;;;51.35;27.17;;;;;;;;;;4983466;28;25099;-60
2023/12/03 08:40:26;;;;;;;57.25;28.58;;;;;;;;;;4981807;28;25053;-63
2023/12/03 08:42:52;;;;;;;55.80;28.48;;;;;;;;;;4985953;28;25065;-61
2023/12/03 08:45:18;;;;;;;51.45;27.02;;;;;;;;;;4987073;28;25077;-62
2023/12/03 08:47:44;;;;;;;55.22;26.17;;;;;;;;;;4984475;28;25178;-62
2023/12/03 08:50:10;;;;;;;49.30;25.42;;;;;;;;;;4984688;28;25090;-62
2023/12/03 08:52:36;;;;;;;53.10;26.25;;;;;;;;;;4984045;28;25058;-63
2023/12/03 08:55:03;;;;;;;46.50;24.27;;;;;;;;;;4985386;28;25051;-63
2023/12/03 08:57:29;;;;;;;51.20;25.33;;;;;;;;;;4984882;28;25094;-61
2023/12/03 08:59:56;;;;;;;50.85;25.17;;;;;;;;;;4982746;28;25087;-61
2023/12/03 09:02:22;;;;;;;47.58;23.88;;;;;;;;;;4986845;28;25066;-65
2023/12/03 09:04:50;;;;;;;49.97;24.33;;;;;;;;;;4985603;28;25077;-65
2023/12/03 09:07:16;;;;;;;45.22;23.67;;;;;;;;;;4988717;28;25057;-64
2023/12/03 09:09:42;;;;;;;49.08;24.58;;;;;;;;;;4988641;28;25074;-62
2023/12/03 09:12:09;;;;;;;47.25;24.20;;;;;;;;;;4988796;28;25146;-63
2023/12/03 09:14:35;;;;;;;46.75;24.13;;;;;;;;;;4998969;28;25114;-62
2023/12/03 09:17:03;;;;;;;42.67;23.05;;;;;;;;;;4981617;28;25065;-64
2023/12/03 09:19:29;;;;;;;44.97;22.33;;;;;;;;;;4985377;28;25140;-64
2023/12/03 09:21:55;;;;;;;47.55;22.70;;;;;;;;;;4981713;28;25107;-61
2023/12/03 09:24:21;;;;;;;47.65;22.33;;;;;;;;;;4984414;28;25133;-62
2023/12/03 09:26:47;;;;;;;44.03;22.13;;;;;;;;;;4985126;28;25174;-63
2023/12/03 09:29:14;;;;;;;43.42;21.88;;;;;;;;;;4985094;28;25112;-62
2023/12/03 09:31:40;;;;;;;40.97;22.33;;;;;;;;;;4985852;28;25060;-62
2023/12/03 09:34:06;;;;;;;41.72;21.73;;;;;;;;;;4984114;28;25088;-63
2023/12/03 09:36:33;;;;;;;41.47;21.88;;;;;;;;;;4987887;28;25126;-61
2023/12/03 09:38:59;;;;;;;39.92;19.58;;;;;;;;;;4988292;28;25140;-62
2023/12/03 09:41:26;;;;;;;38.35;20.17;;;;;;;;;;4990756;28;25107;-62
2023/12/03 09:43:54;;;;;;;34.05;18.42;;;;;;;;;;4995530;28;25086;-61
2023/12/03 09:46:23;;;;;;;34.60;19.48;;;;;;;;;;4989711;28;25110;-64
2023/12/03 09:48:50;;;;;;;34.30;18.65;;;;;;;;;;4996744;23;25065;-72
2023/12/03 09:51:18;;;;;;;41.17;20.20;;;;;;;;;;5022666;28;25068;-73
2023/12/03 09:53:45;;;;;;;34.28;18.77;;;;;;;;;;5010160;28;25072;-75
2023/12/03 09:56:12;;;;;;;36.08;19.33;;;;;;;;;;5010040;28;25071;-73
2023/12/03 09:58:48;;;;;;;29.65;17.42;;;;;;;;;;5011987;28;25074;-73
2023/12/03 10:01:14;;;;;;;32.90;17.48;;;;;;;;;;5014958;28;25071;-71
2023/12/03 10:03:40;;;;;;;37.28;19.45;;;;;;;;;;5007577;28;25092;-73
2023/12/03 10:06:06;;;;;;;35.58;17.38;;;;;;;;;;5009641;28;25080;-74
2023/12/03 10:08:34;;;;;;;34.50;18.52;;;;;;;;;;5008638;28;25074;-74
2023/12/03 10:11:02;;;;;;;36.20;19.50;;;;;;;;;;4999517;28;25052;-74
2023/12/03 10:13:30;;;;;;;34.92;18.48;;;;;;;;;;4996555;28;25063;-73
2023/12/03 10:15:56;;;;;;;32.80;17.65;;;;;;;;;;5010841;28;25062;-72
2023/12/03 10:18:23;;;;;;;35.85;17.67;;;;;;;;;;5012564;28;25082;-73
2023/12/03 10:20:49;;;;;;;35.30;18.15;;;;;;;;;;4997263;28;25103;-75
2023/12/03 10:23:15;;;;;;;33.47;18.83;;;;;;;;;;4998559;28;25114;-73
2023/12/03 10:25:42;;;;;;;33.53;17.92;;;;;;;;;;4990367;28;25052;-74
2023/12/03 10:28:08;;;;;;;36.92;17.77;;;;;;;;;;4994672;28;25103;-73
2023/12/03 10:30:36;;;;;;;43.25;19.08;;;;;;;;;;4999132;28;25067;-74
2023/12/03 10:33:04;;;;;;;33.35;17.50;;;;;;;;;;4993574;28;25155;-72
2023/12/03 10:35:34;;;;;;;30.80;16.38;;;;;;;;;;5012031;28;25085;-73
2023/12/03 10:38:00;;;;;;;29.50;15.93;;;;;;;;;;5003796;28;25069;-74
2023/12/03 10:40:26;;;;;;;32.35;18.08;;;;;;;;;;5007851;28;25078;-74
2023/12/03 10:42:52;;;;;;;32.60;16.42;;;;;;;;;;5003146;28;25101;-73
2023/12/03 10:45:19;;;;;;;32.17;17.25;;;;;;;;;;5003294;28;25133;-74
2023/12/03 10:47:45;;;;;;;31.05;16.92;;;;;;;;;;4996542;28;25056;-73
2023/12/03 10:50:12;;;;;;;31.67;17.55;;;;;;;;;;4995126;28;25060;-73
2023/12/03 10:52:40;;;;;;;37.40;17.92;;;;;;;;;;4993527;28;25053;-74
2023/12/03 10:55:07;;;;;;;36.38;17.92;;;;;;;;;;5000909;28;25105;-73
2023/12/03 10:57:34;;;;;;;31.17;16.27;;;;;;;;;;5005575;28;25150;-72
2023/12/03 11:00:05;;;;;;;29.77;16.45;;;;;;;;;;4998877;28;25150;-73
2023/12/03 11:02:36;;;;;;;36.72;17.65;;;;;;;;;;4994101;28;25078;-73
2023/12/03 11:05:05;;;;;;;29.35;15.90;;;;;;;;;;4997365;28;25056;-72
2023/12/03 11:07:40;;;;;;;32.30;17.52;;;;;;;;;;4996659;28;25055;-73
2023/12/03 11:10:07;;;;;;;37.63;17.23;;;;;;;;;;5000286;28;25066;-73
2023/12/03 11:12:33;;;;;;;29.88;15.93;;;;;;;;;;4999722;28;25072;-72
2023/12/03 11:14:59;;;;;;;27.40;15.90;;;;;;;;;;4998107;28;25153;-72
2023/12/03 11:17:30;;;;;;;28.73;16.95;;;;;;;;;;4996464;28;25111;-72
2023/12/03 11:20:05;;;;;;;28.70;16.05;;;;;;;;;;4998149;28;25115;-74
2023/12/03 11:22:34;;;;;;;28.52;16.52;;;;;;;;;;5000474;28;25099;-71
2023/12/03 11:25:13;;;;;;;29.88;16.90;;;;;;;;;;4994203;28;25121;-75
2023/12/03 11:27:43;;;;;;;31.45;15.98;;;;;;;;;;4998338;28;25093;-74
2023/12/03 11:30:15;;;;;;;31.35;16.25;;;;;;;;;;4995105;28;25127;-72
2023/12/03 11:32:44;;;;;;;31.65;16.00;;;;;;;;;;4995966;28;25079;-74
2023/12/03 11:35:15;;;;;;;31.42;16.83;;;;;;;;;;4987841;28;25054;-74
2023/12/03 11:37:43;;;;;;;32.40;17.50;;;;;;;;;;4987152;28;25120;-74
2023/12/03 11:40:10;;;;;;;29.98;16.65;;;;;;;;;;4994651;28;25062;-73
2023/12/03 11:42:45;;;;;;;28.35;16.33;;;;;;;;;;4990987;28;25078;-73
2023/12/03 11:45:18;;;;;;;26.45;15.50;;;;;;;;;;5001136;28;25086;-74
2023/12/03 11:47:45;;;;;;;29.20;16.08;;;;;;;;;;4996997;28;25100;-74
2023/12/03 11:50:30;;;;;;;26.27;16.45;;;;;;;;;;4994992;28;25047;-74
2023/12/03 11:52:56;;;;;;;26.50;15.27;;;;;;;;;;5000898;28;25044;-75
2023/12/03 11:55:56;;;;;;;23.90;14.98;;;;;;;;;;5008705;28;25064;-73
2023/12/03 11:58:22;;;;;;;26.67;15.02;;;;;;;;;;4997101;28;25075;-72
2023/12/03 12:03:53;;;;;;;26.35;15.38;;;;;;;;;;4982504;28;25074;-73
2023/12/03 12:06:30;;;;;;;26.80;15.70;;;;;;;;;;4993833;28;25069;-73
2023/12/03 12:08:58;;;;;;;29.45;16.73;;;;;;;;;;5057626;23;25085;-75
2023/12/03 12:11:24;;;;;;;26.60;14.35;;;;;;;;;;5006689;28;25069;-75
2023/12/03 12:13:50;;;;;;;25.92;14.57;;;;;;;;;;5007548;28;25057;-74
2023/12/03 12:16:16;;;;;;;27.90;15.68;;;;;;;;;;5004558;28;25062;-75
2023/12/03 12:18:42;;;;;;;27.73;15.68;;;;;;;;;;5007427;28;25147;-77
2023/12/03 12:21:10;;;;;;;30.33;15.23;;;;;;;;;;5006908;28;25063;-75
2023/12/03 12:23:36;;;;;;;29.55;14.63;;;;;;;;;;5005134;28;25093;-75
2023/12/03 12:26:02;;;;;;;30.52;15.95;;;;;;;;;;5004482;28;25083;-77
2023/12/03 12:28:29;;;;;;;30.95;15.57;;;;;;;;;;5004436;28;25052;-75
2023/12/03 12:30:55;;;;;;;27.58;15.65;;;;;;;;;;5002213;28;25055;-74
2023/12/03 12:33:21;;;;;;;29.80;16.42;;;;;;;;;;5005295;28;25111;-76
2023/12/03 12:35:51;;;;;;;35.13;18.13;;;;;;;;;;5005329;28;25072;-74
2023/12/03 12:38:17;;;;;;;27.83;15.60;;;;;;;;;;5005717;28;25147;-75
2023/12/03 12:40:53;;;;;;;26.40;15.68;;;;;;;;;;5003446;28;25049;-75
2023/12/03 12:43:22;;;;;;;30.38;16.98;;;;;;;;;;5008280;28;25046;-76
2023/12/03 12:45:49;;;;;;;30.92;17.35;;;;;;;;;;5006218;28;25056;-73
2023/12/03 12:48:25;;;;;;;30.05;17.17;;;;;;;;;;5006707;28;25128;-74
2023/12/03 12:50:51;;;;;;;31.50;16.60;;;;;;;;;;5004364;28;25111;-73
2023/12/03 12:53:17;;;;;;;31.23;18.00;;;;;;;;;;5006592;28;25080;-75
2023/12/03 12:55:44;;;;;;;32.17;16.30;;;;;;;;;;5002239;28;25068;-76
2023/12/03 12:58:10;;;;;;;30.90;17.88;;;;;;;;;;5002393;28;25090;-76
2023/12/03 13:00:37;;;;;;;31.95;16.67;;;;;;;;;;5006524;28;25065;-76
2023/12/03 13:03:03;;;;;;;31.63;17.38;;;;;;;;;;5003018;28;25142;-78
2023/12/03 13:05:29;;;;;;;31.67;17.13;;;;;;;;;;5005118;28;25064;-75
2023/12/03 13:07:56;;;;;;;37.67;18.55;;;;;;;;;;4995730;28;25071;-75
2023/12/03 13:10:22;;;;;;;33.20;16.92;;;;;;;;;;5006269;28;25051;-75
2023/12/03 13:12:48;;;;;;;30.55;16.65;;;;;;;;;;5003769;28;25067;-76
2023/12/03 13:15:14;;;;;;;32.47;16.48;;;;;;;;;;5007911;28;25065;-77
2023/12/03 13:17:46;;;;;;;28.92;17.40;;;;;;;;;;5010490;28;25076;-75
2023/12/03 13:20:12;;;;;;;29.38;16.88;;;;;;;;;;5012710;28;25088;-76
2023/12/03 13:22:39;;;;;;;28.35;17.15;;;;;;;;;;5006569;28;25060;-77
2023/12/03 13:25:05;;;;;;;32.08;16.40;;;;;;;;;;5024341;28;25162;-75
2023/12/03 13:27:31;;;;;;;30.85;17.80;;;;;;;;;;5013056;28;25053;-75
2023/12/03 13:29:57;;;;;;;27.80;15.82;;;;;;;;;;5008956;28;25075;-75
2023/12/03 13:32:23;;;;;;;31.70;17.92;;;;;;;;;;5008234;28;25052;-76
2023/12/03 13:34:49;;;;;;;30.38;17.52;;;;;;;;;;5009295;28;25049;-76
2023/12/03 13:37:15;;;;;;;33.10;16.73;;;;;;;;;;5008248;28;25109;-77
2023/12/03 13:39:41;;;;;;;30.70;16.88;;;;;;;;;;5011198;28;25056;-76
2023/12/03 13:42:07;;;;;;;31.45;17.63;;;;;;;;;;5007321;28;25084;-74
2023/12/03 13:44:33;;;;;;;31.33;17.25;;;;;;;;;;5008852;28;25068;-76
2023/12/03 13:46:59;;;;;;;28.90;16.25;;;;;;;;;;5008318;28;25097;-77
2023/12/03 13:49:25;;;;;;;35.92;17.25;;;;;;;;;;5009440;28;25064;-75
2023/12/03 13:51:51;;;;;;;32.17;15.73;;;;;;;;;;5007652;28;25058;-76
2023/12/03 13:54:17;;;;;;;30.30;16.50;;;;;;;;;;5009607;28;25084;-76
2023/12/03 13:56:43;;;;;;;26.02;15.18;;;;;;;;;;5010323;28;25087;-76
2023/12/03 13:59:10;;;;;;;27.95;15.38;;;;;;;;;;5015988;28;25086;-75
2023/12/03 14:01:36;;;;;;;25.75;14.70;;;;;;;;;;5018652;28;25056;-76
2023/12/03 14:04:02;;;;;;;25.77;15.30;;;;;;;;;;5009984;28;25066;-73
2023/12/03 14:06:29;;;;;;;29.20;16.63;;;;;;;;;;5010220;28;25057;-76
2023/12/03 14:08:55;;;;;;;29.05;15.35;;;;;;;;;;5006519;28;25120;-76
2023/12/03 14:11:21;;;;;;;28.25;15.40;;;;;;;;;;5013780;28;25075;-75
2023/12/03 14:13:47;;;;;;;29.08;15.15;;;;;;;;;;5010108;28;25057;-78
2023/12/03 14:16:15;;;;;;;29.30;15.30;;;;;;;;;;5009019;28;25067;-74